createdAt,value
2022-10-22T00:02:21.558Z,8.70
2022-10-22T00:04:50.894Z,8.43
2022-10-22T00:07:18.549Z,7.07
2022-10-22T00:09:46.067Z,9.18
2022-10-22T00:12:15.310Z,7.80
2022-10-22T00:14:42.889Z,11.10
2022-10-22T00:17:11.483Z,9.98
2022-10-22T00:19:39.776Z,14.30
2022-10-22T00:22:08.097Z,12.90
2022-10-22T00:24:37.062Z,12.68
2022-10-22T00:27:05.554Z,13.07
2022-10-22T00:29:33.167Z,8.82
2022-10-22T00:32:00.712Z,8.63
2022-10-22T00:34:27.983Z,13.65
2022-10-22T00:36:55.108Z,7.15
2022-10-22T00:39:24.976Z,8.40
2022-10-22T00:41:53.891Z,10.13
2022-10-22T00:44:58.514Z,7.78
2022-10-22T00:47:28.602Z,8.75
2022-10-22T00:49:57.262Z,7.45
2022-10-22T00:52:24.847Z,10.88
2022-10-22T00:54:52.376Z,12.23
2022-10-22T00:57:20.574Z,11.40
2022-10-22T00:59:48.559Z,10.93
2022-10-22T01:02:19.163Z,11.00
2022-10-22T01:04:46.216Z,8.98
2022-10-22T01:07:21.791Z,9.88
2022-10-22T01:10:13.220Z,11.45
2022-10-22T01:12:54.752Z,8.68
2022-10-22T01:15:36.040Z,9.52
2022-10-22T01:18:09.800Z,10.63
2022-10-22T01:20:55.106Z,13.40
2022-10-22T01:23:33.460Z,9.32
2022-10-22T01:26:27.558Z,7.72
2022-10-22T01:29:06.937Z,6.40
2022-10-22T01:31:41.396Z,5.18
2022-10-22T01:34:11.773Z,5.95
2022-10-22T01:36:39.453Z,5.82
2022-10-22T01:39:08.312Z,8.60
2022-10-22T01:41:35.720Z,7.70
2022-10-22T01:44:02.811Z,7.07
2022-10-22T01:46:29.851Z,4.82
2022-10-22T01:49:17.730Z,6.88
2022-10-22T01:51:44.666Z,6.47
2022-10-22T01:54:28.838Z,6.85
2022-10-22T01:57:14.773Z,7.38
2022-10-22T02:00:01.616Z,6.22
2022-10-22T02:02:38.942Z,6.95
2022-10-22T02:05:15.129Z,6.40
2022-10-22T02:07:49.076Z,4.43
2022-10-22T02:10:18.289Z,5.97
2022-10-22T02:12:50.583Z,5.57
2022-10-22T02:15:20.614Z,3.95
2022-10-22T02:17:49.698Z,5.75
2022-10-22T02:20:22.317Z,6.47
2022-10-22T02:22:49.724Z,6.22
2022-10-22T02:25:16.957Z,4.90
2022-10-22T02:27:51.569Z,4.38
2022-10-22T02:30:21.052Z,4.45
2022-10-22T02:32:53.896Z,5.00
2022-10-22T02:35:25.709Z,5.50
2022-10-22T02:40:22.646Z,4.38
2022-10-22T02:42:50.956Z,4.15
2022-10-22T02:45:19.553Z,3.53
2022-10-22T02:47:46.656Z,3.60
2022-10-22T02:50:13.811Z,2.88
2022-10-22T02:52:41.313Z,2.45
2022-10-22T02:55:08.809Z,2.80
2022-10-22T02:57:35.875Z,2.75
2022-10-22T03:00:05.299Z,2.90
2022-10-22T03:02:32.356Z,3.00
2022-10-22T03:04:59.479Z,3.00
2022-10-22T03:07:26.506Z,3.35
2022-10-22T03:09:53.527Z,2.85
2022-10-22T03:12:20.581Z,2.35
2022-10-22T03:14:47.600Z,2.50
2022-10-22T03:17:14.723Z,2.70
2022-10-22T03:19:41.693Z,2.15
2022-10-22T03:22:19.461Z,2.50
2022-10-22T03:24:50.524Z,2.30
2022-10-22T03:27:19.982Z,2.22
2022-10-22T03:29:47.828Z,2.55
2022-10-22T03:32:14.827Z,2.80
2022-10-22T03:34:41.816Z,3.53
2022-10-22T03:37:08.833Z,4.72
2022-10-22T03:39:37.123Z,3.80
2022-10-22T03:42:06.555Z,4.85
2022-10-22T03:44:35.422Z,4.82
2022-10-22T03:47:02.853Z,4.93
2022-10-22T03:49:30.047Z,4.40
2022-10-22T03:51:57.048Z,4.30
2022-10-22T03:54:24.066Z,3.92
2022-10-22T03:56:51.041Z,3.47
2022-10-22T03:59:18.219Z,3.83
2022-10-22T04:01:45.248Z,3.67
2022-10-22T04:04:12.240Z,3.45
2022-10-22T04:06:39.230Z,4.00
2022-10-22T04:09:06.324Z,3.47
2022-10-22T04:11:33.374Z,4.07
2022-10-22T04:14:00.401Z,3.40
2022-10-22T04:16:29.991Z,4.18
2022-10-22T04:18:58.160Z,3.30
2022-10-22T04:21:25.788Z,4.40
2022-10-22T04:23:53.407Z,4.32
2022-10-22T04:26:21.296Z,3.75
2022-10-22T04:28:50.334Z,5.05
2022-10-22T04:31:20.012Z,4.10
2022-10-22T04:33:47.676Z,4.90
2022-10-22T04:36:17.221Z,3.92
2022-10-22T04:38:47.273Z,3.53
2022-10-22T04:41:19.528Z,4.30
2022-10-22T04:43:47.517Z,4.20
2022-10-22T04:46:17.711Z,4.80
2022-10-22T04:48:45.619Z,5.18
2022-10-22T04:51:15.726Z,4.55
2022-10-22T04:53:43.836Z,4.47
2022-10-22T04:56:19.640Z,4.15
2022-10-22T04:58:48.589Z,5.25
2022-10-22T05:01:24.216Z,4.57
2022-10-22T05:03:53.088Z,6.50
2022-10-22T05:06:21.006Z,5.13
2022-10-22T05:08:48.826Z,4.55
2022-10-22T05:11:19.073Z,5.13
2022-10-22T05:13:46.200Z,5.40
2022-10-22T05:16:13.724Z,4.78
2022-10-22T05:18:43.191Z,5.30
2022-10-22T05:21:12.436Z,4.20
2022-10-22T05:23:39.546Z,4.45
2022-10-22T05:26:08.361Z,4.30
2022-10-22T05:28:36.291Z,4.38
2022-10-22T05:31:05.232Z,3.78
2022-10-22T05:33:33.217Z,3.40
2022-10-22T05:36:02.038Z,2.90
2022-10-22T05:38:29.114Z,3.10
2022-10-22T05:41:10.854Z,3.42
2022-10-22T05:43:39.620Z,3.00
2022-10-22T05:46:10.235Z,3.35
2022-10-22T05:48:38.057Z,3.50
2022-10-22T05:51:08.893Z,3.72
2022-10-22T05:53:38.035Z,3.47
2022-10-22T05:56:08.093Z,3.40
2022-10-22T05:58:36.894Z,3.45
2022-10-22T06:01:06.335Z,3.72
2022-10-22T06:03:33.569Z,3.55
2022-10-22T06:06:15.971Z,3.42
2022-10-22T06:08:43.015Z,4.40
2022-10-22T06:11:10.106Z,4.28
2022-10-22T06:13:37.146Z,4.38
2022-10-22T06:16:04.579Z,5.40
2022-10-22T06:18:33.030Z,6.60
2022-10-22T06:21:08.635Z,5.82
2022-10-22T06:23:37.119Z,6.13
2022-10-22T06:26:05.666Z,6.90
2022-10-22T06:28:33.412Z,5.88
2022-10-22T06:31:02.099Z,5.90
2022-10-22T06:33:31.163Z,5.75
2022-10-22T06:36:07.671Z,5.10
2022-10-22T06:38:34.995Z,5.38
2022-10-22T06:41:07.158Z,5.72
2022-10-22T06:43:34.152Z,6.50
2022-10-22T06:46:04.183Z,6.10
2022-10-22T06:48:31.430Z,4.88
2022-10-22T06:51:01.940Z,4.72
2022-10-22T06:53:29.620Z,4.43
2022-10-22T06:55:56.777Z,3.30
2022-10-22T06:58:24.227Z,4.50
2022-10-22T07:01:01.316Z,4.35
2022-10-22T07:03:28.364Z,3.53
2022-10-22T07:05:55.414Z,3.53
2022-10-22T07:08:25.263Z,2.50
2022-10-22T07:10:52.292Z,2.88
2022-10-22T07:13:19.325Z,3.25
2022-10-22T07:15:46.317Z,3.35
2022-10-22T07:18:13.400Z,3.60
2022-10-22T07:20:40.410Z,3.47
2022-10-22T07:23:08.391Z,5.35
2022-10-22T07:25:35.931Z,3.22
2022-10-22T07:28:02.926Z,3.55
2022-10-22T07:30:29.907Z,3.42
2022-10-22T07:32:56.883Z,3.75
2022-10-22T07:35:23.900Z,3.90
2022-10-22T07:37:50.897Z,3.13
2022-10-22T07:40:17.918Z,2.78
2022-10-22T07:42:44.888Z,2.80
2022-10-22T07:45:11.879Z,2.85
2022-10-22T07:47:39.642Z,2.20
2022-10-22T07:50:07.256Z,1.80
2022-10-22T07:52:34.314Z,2.00
2022-10-22T07:55:01.359Z,2.38
2022-10-22T07:57:28.345Z,2.35
2022-10-22T07:59:55.311Z,1.95
2022-10-22T08:02:22.268Z,2.13
2022-10-22T08:04:49.305Z,2.40
2022-10-22T08:07:16.374Z,2.20
2022-10-22T08:09:43.579Z,2.17
2022-10-22T08:12:10.638Z,2.10
2022-10-22T08:14:37.637Z,2.10
2022-10-22T08:17:04.694Z,2.15
2022-10-22T08:19:31.779Z,1.73
2022-10-22T08:21:59.603Z,1.88
2022-10-22T08:24:28.216Z,1.80
2022-10-22T08:26:55.241Z,2.22
2022-10-22T08:29:23.203Z,2.20
2022-10-22T08:31:50.710Z,2.38
2022-10-22T08:34:17.689Z,2.10
2022-10-22T08:36:44.724Z,2.30
2022-10-22T08:39:12.211Z,2.00
2022-10-22T08:41:44.964Z,1.70
2022-10-22T08:44:34.019Z,1.60
2022-10-22T08:47:26.351Z,2.03
2022-10-22T08:49:53.858Z,1.50
2022-10-22T08:52:21.690Z,1.50
2022-10-22T08:54:59.879Z,1.70
2022-10-22T08:57:54.989Z,1.60
2022-10-22T09:00:35.047Z,1.80
2022-10-22T09:03:17.017Z,2.03
2022-10-22T09:06:05.086Z,1.50
2022-10-22T09:08:32.256Z,1.80
2022-10-22T09:11:06.401Z,1.83
2022-10-22T09:13:33.462Z,1.92
2022-10-22T09:16:11.255Z,1.70
2022-10-22T09:18:59.825Z,2.15
2022-10-22T09:21:43.524Z,1.70
2022-10-22T09:24:25.963Z,1.55
2022-10-22T09:26:56.722Z,1.60
2022-10-22T09:29:30.883Z,1.70
2022-10-22T09:31:58.167Z,1.70
2022-10-22T09:34:25.177Z,1.75
2022-10-22T09:37:00.135Z,1.38
2022-10-22T09:39:54.728Z,1.50
2022-10-22T09:42:22.405Z,1.55
2022-10-22T09:44:55.535Z,1.60
2022-10-22T09:47:43.491Z,1.42
2022-10-22T09:50:19.817Z,1.98
2022-10-22T09:52:58.430Z,1.67
2022-10-22T09:55:26.098Z,1.40
2022-10-22T09:58:00.325Z,1.23
2022-10-22T10:00:27.932Z,2.15
2022-10-22T10:02:58.236Z,1.65
2022-10-22T10:05:32.385Z,1.60
2022-10-22T10:08:02.431Z,1.48
2022-10-22T10:10:47.055Z,1.45
2022-10-22T10:13:36.081Z,1.38
2022-10-22T10:17:00.807Z,1.00
2022-10-22T10:19:38.305Z,1.38
2022-10-22T10:22:17.105Z,1.38
2022-10-22T10:25:05.798Z,1.55
2022-10-22T10:27:43.082Z,1.10
2022-10-22T10:30:15.985Z,1.20
2022-10-22T10:33:14.981Z,1.00
2022-10-22T10:35:41.926Z,1.38
2022-10-22T10:38:31.962Z,1.73
2022-10-22T10:41:12.015Z,1.10
2022-10-22T10:43:46.879Z,0.90
2022-10-22T10:46:37.164Z,1.10
2022-10-22T10:49:24.314Z,0.95
2022-10-22T10:52:18.955Z,1.05
2022-10-22T10:54:48.125Z,1.30
2022-10-22T10:57:30.276Z,1.30
2022-10-22T11:00:01.728Z,1.25
2022-10-22T11:02:53.789Z,1.05
2022-10-22T11:05:32.707Z,1.00
2022-10-22T11:08:04.813Z,1.00
2022-10-22T11:10:41.844Z,0.95
2022-10-22T11:13:33.319Z,0.95
2022-10-22T11:16:06.514Z,0.90
2022-10-22T11:18:41.845Z,1.00
2022-10-22T11:21:21.138Z,1.13
2022-10-22T11:23:49.846Z,0.80
2022-10-22T11:26:44.236Z,1.00
2022-10-22T11:29:16.228Z,1.15
2022-10-22T11:31:44.181Z,0.90
2022-10-22T11:34:33.314Z,0.80
2022-10-22T11:37:02.561Z,1.10
2022-10-22T11:39:38.841Z,1.20
2022-10-22T11:42:19.892Z,0.90
2022-10-22T11:44:49.336Z,1.20
2022-10-22T11:47:24.443Z,1.00
2022-10-22T11:50:15.914Z,1.13
2022-10-22T11:52:54.734Z,0.90
2022-10-22T11:55:33.108Z,0.80
2022-10-22T11:58:06.693Z,0.95
2022-10-22T12:00:39.457Z,0.95
2022-10-22T12:03:39.705Z,0.95
2022-10-22T12:06:09.656Z,0.85
2022-10-22T12:08:43.852Z,0.90
2022-10-22T12:11:10.851Z,0.93
2022-10-22T12:14:03.041Z,0.98
2022-10-22T12:16:54.806Z,1.60
2022-10-22T12:19:22.729Z,1.48
2022-10-22T12:21:58.573Z,0.90
2022-10-22T12:24:30.329Z,1.58
2022-10-22T12:26:57.368Z,0.90
2022-10-22T12:29:24.460Z,1.00
2022-10-22T12:31:51.418Z,1.17
2022-10-22T12:34:23.095Z,1.27
2022-10-22T12:41:58.896Z,1.20
2022-10-22T12:44:25.857Z,7.38
2022-10-22T12:46:56.835Z,3.00
2022-10-22T12:49:39.044Z,2.00
2022-10-22T12:54:41.306Z,1.00
2022-10-22T12:57:15.344Z,1.40
2022-10-22T12:59:48.810Z,4.28
2022-10-22T13:02:25.565Z,1.65
2022-10-22T13:05:14.987Z,2.08
2022-10-22T13:07:46.671Z,1.80
2022-10-22T13:12:48.860Z,5.93
2022-10-22T13:15:27.759Z,10.25
2022-10-22T13:18:15.747Z,3.30
2022-10-22T13:21:00.947Z,2.70
2022-10-22T13:23:29.976Z,5.28
2022-10-22T13:26:12.227Z,5.22
2022-10-22T13:28:40.036Z,5.80
2022-10-22T13:31:17.152Z,2.40
2022-10-22T13:33:50.387Z,10.48
2022-10-22T13:36:17.985Z,2.78
2022-10-22T13:38:45.546Z,2.00
2022-10-22T13:41:20.913Z,1.60
2022-10-22T13:43:48.048Z,1.33
2022-10-22T13:46:15.560Z,1.92
2022-10-22T13:48:43.807Z,2.83
2022-10-22T13:51:18.169Z,1.60
2022-10-22T13:53:46.982Z,2.80
2022-10-22T13:56:15.765Z,3.13
2022-10-22T13:58:44.597Z,2.83
2022-10-22T14:01:31.845Z,15.25
2022-10-22T14:04:00.426Z,4.30
2022-10-22T14:06:31.103Z,3.55
2022-10-22T14:09:00.758Z,1.50
2022-10-22T14:11:28.231Z,1.60
2022-10-22T14:13:55.171Z,1.42
2022-10-22T14:16:28.172Z,1.58
2022-10-22T14:18:55.980Z,1.45
2022-10-22T14:21:23.104Z,2.13
2022-10-22T14:23:50.079Z,1.40
2022-10-22T14:26:25.424Z,1.75
2022-10-22T14:34:15.456Z,5.15
2022-10-22T14:36:42.618Z,4.22
2022-10-22T14:39:09.572Z,7.65
2022-10-22T14:41:36.586Z,3.03
2022-10-22T14:44:03.839Z,7.75
2022-10-22T14:46:30.849Z,7.97
2022-10-22T14:48:57.941Z,8.05
2022-10-22T14:51:25.076Z,8.20
2022-10-22T14:53:52.081Z,4.60
2022-10-22T14:56:19.694Z,2.85
2022-10-22T14:58:46.892Z,2.28
2022-10-22T15:01:14.031Z,1.95
2022-10-22T15:03:41.323Z,1.88
2022-10-22T15:06:08.445Z,1.95
2022-10-22T15:08:35.509Z,4.75
2022-10-22T15:11:05.662Z,8.80
2022-10-22T15:13:33.453Z,12.95
2022-10-22T15:16:00.887Z,7.20
2022-10-22T15:18:28.665Z,2.90
2022-10-22T15:21:00.298Z,3.28
2022-10-22T15:23:27.654Z,3.70
2022-10-22T15:26:00.560Z,14.70
2022-10-22T15:28:27.621Z,4.57
2022-10-22T15:31:13.269Z,2.05
2022-10-22T15:33:41.815Z,5.25
2022-10-22T15:36:13.615Z,3.53
2022-10-22T15:38:40.592Z,2.30
2022-10-22T15:41:09.617Z,1.98
2022-10-22T15:43:36.714Z,2.75
2022-10-22T15:46:15.232Z,2.00
2022-10-22T15:48:42.552Z,3.20
2022-10-22T15:51:17.970Z,2.55
2022-10-22T15:53:52.293Z,1.33
2022-10-22T15:56:19.326Z,1.63
2022-10-22T15:58:46.410Z,1.33
2022-10-22T16:01:14.399Z,1.35
2022-10-22T16:03:41.939Z,2.05
2022-10-22T16:06:09.583Z,5.93
2022-10-22T16:08:37.309Z,1.50
2022-10-22T16:11:04.892Z,1.63
2022-10-22T16:13:32.430Z,1.38
2022-10-22T16:16:05.472Z,2.08
2022-10-22T16:18:32.589Z,2.08
2022-10-22T16:20:59.532Z,2.35
2022-10-22T16:23:26.568Z,1.77
2022-10-22T16:25:53.525Z,1.85
2022-10-22T16:28:20.582Z,20.52
2022-10-22T16:30:47.646Z,1.80
2022-10-22T16:33:14.613Z,1.48
2022-10-22T16:35:42.577Z,1.50
2022-10-22T16:38:10.672Z,2.00
2022-10-22T16:40:38.186Z,1.75
2022-10-22T16:43:05.877Z,1.85
2022-10-22T16:45:33.104Z,3.42
2022-10-22T16:48:00.176Z,7.22
2022-10-22T16:50:27.368Z,6.53
2022-10-22T16:52:54.383Z,1.63
2022-10-22T16:55:21.380Z,2.17
2022-10-22T16:57:51.718Z,2.80
2022-10-22T17:00:19.579Z,4.05
2022-10-22T17:02:51.526Z,12.65
2022-10-22T17:05:18.563Z,24.20
2022-10-22T17:07:45.567Z,10.70
2022-10-22T17:10:12.823Z,6.00
2022-10-22T17:12:40.459Z,6.30
2022-10-22T17:15:08.170Z,2.83
2022-10-22T17:17:35.215Z,15.00
2022-10-22T17:20:02.391Z,3.05
2022-10-22T17:22:29.360Z,3.05
2022-10-22T17:25:17.202Z,6.20
2022-10-22T17:27:44.707Z,3.72
2022-10-22T17:30:16.743Z,2.70
2022-10-22T17:32:44.480Z,2.13
2022-10-22T17:35:14.797Z,3.75
2022-10-22T17:37:42.057Z,2.75
2022-10-22T17:40:10.065Z,3.03
2022-10-22T17:42:37.034Z,2.70
2022-10-22T17:45:04.380Z,13.90
2022-10-22T17:47:31.377Z,3.20
2022-10-22T17:49:58.410Z,3.00
2022-10-22T17:52:25.480Z,10.80
2022-10-22T17:54:52.456Z,11.68
2022-10-22T17:57:19.444Z,12.65
2022-10-22T17:59:46.398Z,3.50
2022-10-22T18:02:16.011Z,2.85
2022-10-22T18:04:43.598Z,2.65
2022-10-22T18:07:10.593Z,2.78
2022-10-22T18:09:39.140Z,16.00
2022-10-22T18:12:06.564Z,5.05
2022-10-22T18:14:33.614Z,2.67
2022-10-22T18:17:02.269Z,2.78
2022-10-22T18:19:29.921Z,2.20
2022-10-22T18:21:57.082Z,3.50
2022-10-22T18:24:24.227Z,2.60
2022-10-22T18:26:51.284Z,2.13
2022-10-22T18:29:19.476Z,2.17
2022-10-22T18:31:47.852Z,18.92
2022-10-22T18:34:16.656Z,4.85
2022-10-22T18:36:46.053Z,5.38
2022-10-22T18:39:15.041Z,9.35
2022-10-22T18:41:42.911Z,5.43
2022-10-22T18:44:14.109Z,3.83
2022-10-22T18:46:41.263Z,2.95
2022-10-22T18:49:08.589Z,2.90
2022-10-22T18:51:36.107Z,3.97
2022-10-22T18:54:05.784Z,3.17
2022-10-22T18:56:46.278Z,3.17
2022-10-22T18:59:20.779Z,2.42
2022-10-22T19:01:48.023Z,2.88
2022-10-22T19:04:15.340Z,2.55
2022-10-22T19:06:45.302Z,3.13
2022-10-22T19:09:14.804Z,2.60
2022-10-22T19:11:43.588Z,3.33
2022-10-22T19:14:10.658Z,4.43
2022-10-22T19:16:37.857Z,5.93
2022-10-22T19:19:06.913Z,8.52
2022-10-22T19:21:34.526Z,7.07
2022-10-22T19:24:02.054Z,7.60
2022-10-22T19:26:30.696Z,5.03
2022-10-22T19:28:58.730Z,3.88
2022-10-22T19:31:27.301Z,2.50
2022-10-22T19:33:54.287Z,2.50
2022-10-22T19:36:22.160Z,2.17
2022-10-22T19:38:49.212Z,2.60
2022-10-22T19:41:18.743Z,3.15
2022-10-22T19:43:48.920Z,2.78
2022-10-22T19:46:16.469Z,2.70
2022-10-22T19:51:31.878Z,3.17
2022-10-22T19:54:01.185Z,4.22
2022-10-22T19:56:28.837Z,4.00
2022-10-22T19:58:56.394Z,3.88
2022-10-22T20:01:24.099Z,7.28
2022-10-22T20:03:52.089Z,6.30
2022-10-22T20:06:19.675Z,4.82
2022-10-22T20:08:46.814Z,5.18
2022-10-22T20:11:20.305Z,4.70
2022-10-22T20:13:51.180Z,5.22
2022-10-22T20:16:22.288Z,5.38
2022-10-22T20:18:49.556Z,4.95
2022-10-22T20:21:18.133Z,4.60
2022-10-22T20:23:46.419Z,4.72
2022-10-22T20:26:13.687Z,4.55
2022-10-22T20:28:40.774Z,4.35
2022-10-22T20:31:15.445Z,4.50
2022-10-22T20:33:42.413Z,4.80
2022-10-22T20:36:15.971Z,4.95
2022-10-22T20:38:43.032Z,4.75
2022-10-22T20:41:12.576Z,4.88
2022-10-22T20:43:39.690Z,3.22
2022-10-22T20:46:07.676Z,4.05
2022-10-22T20:48:34.666Z,4.38
2022-10-22T20:51:01.643Z,3.75
2022-10-22T20:53:28.607Z,4.32
2022-10-22T20:55:58.774Z,5.03
2022-10-22T20:58:38.624Z,5.00
2022-10-22T21:01:06.014Z,4.47
2022-10-22T21:06:05.789Z,4.20
2022-10-22T21:08:32.788Z,4.47
2022-10-22T21:10:59.800Z,6.63
2022-10-22T21:13:26.825Z,4.38
2022-10-22T21:15:53.793Z,5.03
2022-10-22T21:18:20.776Z,4.88
2022-10-22T21:20:47.731Z,4.95
2022-10-22T21:23:14.739Z,4.47
2022-10-22T21:25:43.389Z,5.20
2022-10-22T21:28:11.084Z,6.20
2022-10-22T21:30:44.684Z,10.80
2022-10-22T21:33:11.655Z,10.57
2022-10-22T21:35:38.725Z,11.70
2022-10-22T21:38:05.835Z,9.10
2022-10-22T21:40:32.799Z,10.02
2022-10-22T21:42:59.797Z,5.20
2022-10-22T21:45:26.920Z,8.38
2022-10-22T21:47:53.921Z,12.05
2022-10-22T21:50:20.888Z,8.18
2022-10-22T21:52:47.928Z,11.07
2022-10-22T21:55:14.893Z,7.25
2022-10-22T21:57:42.143Z,4.47
2022-10-22T22:00:10.984Z,4.60
2022-10-22T22:02:46.070Z,3.75
2022-10-22T22:05:13.069Z,4.07
2022-10-22T22:07:40.044Z,4.53
2022-10-22T22:10:07.551Z,6.15
2022-10-22T22:12:34.611Z,3.53
2022-10-22T22:15:01.626Z,4.72
2022-10-22T22:17:28.611Z,4.85
2022-10-22T22:19:55.621Z,4.53
2022-10-22T22:22:22.958Z,4.35
2022-10-22T22:24:49.938Z,4.65
2022-10-22T22:27:16.936Z,3.33
2022-10-22T22:29:43.984Z,6.03
2022-10-22T22:32:10.972Z,7.82
2022-10-22T22:34:37.957Z,10.05
2022-10-22T22:37:06.922Z,9.57
2022-10-22T22:39:33.996Z,7.50
2022-10-22T22:42:01.039Z,11.20
2022-10-22T22:44:28.077Z,7.90
2022-10-22T22:46:55.024Z,7.55
2022-10-22T22:49:22.022Z,12.38
2022-10-22T22:51:49.353Z,12.18
2022-10-22T22:54:16.371Z,10.77
2022-10-22T22:56:43.345Z,7.80
2022-10-22T22:59:10.696Z,12.60
2022-10-22T23:01:38.943Z,7.93
2022-10-22T23:04:15.280Z,7.63
2022-10-22T23:06:42.833Z,6.70
2022-10-22T23:09:12.038Z,6.78
2022-10-22T23:11:40.877Z,6.07
2022-10-22T23:14:10.392Z,6.05
2022-10-22T23:16:41.520Z,5.28
2022-10-22T23:19:08.556Z,7.63
2022-10-22T23:21:39.328Z,5.75
2022-10-22T23:24:10.806Z,6.30
2022-10-22T23:26:40.915Z,6.85
2022-10-22T23:29:11.935Z,8.73
2022-10-22T23:31:39.321Z,7.72
2022-10-22T23:34:07.232Z,6.65
2022-10-22T23:36:35.882Z,4.43
2022-10-22T23:39:05.856Z,5.72
2022-10-22T23:41:33.163Z,10.48
2022-10-22T23:44:00.575Z,7.30
2022-10-22T23:46:27.842Z,5.85
2022-10-22T23:48:54.799Z,8.73
2022-10-22T23:51:22.560Z,8.95
2022-10-22T23:53:58.691Z,8.55
2022-10-22T23:56:27.599Z,6.80
2022-10-22T23:58:55.662Z,7.85
